Longton, United Kingdom
Current Conditions -  °F | °C
As of 4:50 PM on Saturday 22 Nov 2014 (Local Time) from EGOS Reporting Station
Broken Clouds Broken Clouds  
Wind Chill: 52°   Ceiling: 2900
Heat Index: 52°   Visibility: 6mi
Dew Point: 48°   Wind: 5mph
Humidity: 88%   Direction: 220°SW
Pressure: 29.88"   Gusts: NA
Location:  52.98°N, 2.13°W
Report Text: EGOS 221650Z AUTO 22004KT 9999 BKN029/// 11/09 Q1012 RERA
Loading
Personal Weather Stations






























Interactive Weather Map New forecast layout! Learn more

10-Day Weather Forecast

Advertisements
Track Severe Weather on mobile